Time;durP1;ratioP1;P1;durP2;ratioP2;P2;SDS_P1;SDS_P2;PMS_P1;PMS_P2;Temp;Humidity;BMP_temperature;BMP_pressure;BME280_temperature;BME280_humidity;BME280_pressure;Samples;Min_cycle;Max_cycle;Signal;HPM_P1;HPM_P2
2022/09/14 00:02:21;;;;;;;;;;;;;;;21.37;75.62;96896.00;573813;246;67217;-69
2022/09/14 00:04:50;;;;;;;;;;;;;;;21.37;75.63;96891.48;573268;247;65305;-72
2022/09/14 00:07:17;;;;;;;;;;;;;;;21.37;75.63;96896.83;573324;247;65228;-72
2022/09/14 00:09:45;;;;;;;;;;;;;;;21.37;75.64;96896.00;573363;247;67053;-72
2022/09/14 00:12:12;;;;;;;;;;;;;;;21.37;75.63;96893.33;573303;247;63194;-72
2022/09/14 00:14:40;;;;;;;;;;;;;;;21.36;75.61;96892.53;573326;247;65339;-72
2022/09/14 00:17:07;;;;;;;;;;;;;;;21.36;75.66;96900.56;573309;247;65175;-72
2022/09/14 00:19:35;;;;;;;;;;;;;;;21.36;75.58;96900.56;573313;247;63044;-72
2022/09/14 00:22:02;;;;;;;;;;;;;;;21.36;75.54;96902.41;573353;247;67308;-72
2022/09/14 00:24:30;;;;;;;;;;;;;;;21.37;75.57;96906.70;573357;247;67016;-72
2022/09/14 00:26:58;;;;;;;;;;;;;;;21.36;75.58;96903.23;573316;247;62804;-72
2022/09/14 00:29:25;;;;;;;;;;;;;;;21.36;75.57;96905.08;573279;247;67398;-72
2022/09/14 00:31:53;;;;;;;;;;;;;;;21.36;75.53;96895.21;573292;247;67096;-72
2022/09/14 00:34:20;;;;;;;;;;;;;;;21.35;75.52;96893.59;573314;247;65067;-72
2022/09/14 00:36:49;;;;;;;;;;;;;;;21.36;75.48;96900.56;573344;247;67277;-72
2022/09/14 00:39:17;;;;;;;;;;;;;;;21.35;75.54;96893.59;573309;247;64843;-72
2022/09/14 00:41:46;;;;;;;;;;;;;;;21.35;75.48;96896.27;573363;247;62949;-72
2022/09/14 00:44:15;;;;;;;;;;;;;;;21.36;75.48;96894.39;573272;247;67482;-72
2022/09/14 00:46:44;;;;;;;;;;;;;;;21.35;75.45;96898.94;573342;247;64631;-72
2022/09/14 00:49:14;;;;;;;;;;;;;;;21.35;75.48;96903.49;573348;247;65185;-72
2022/09/14 00:51:42;;;;;;;;;;;;;;;21.35;75.40;96906.95;573306;247;65325;-72
2022/09/14 00:54:10;;;;;;;;;;;;;;;21.35;75.49;96906.95;573222;247;67569;-72
2022/09/14 00:56:38;;;;;;;;;;;;;;;21.35;75.47;96900.82;573302;247;65252;-72
2022/09/14 00:59:16;;;;;;;;;;;;;;;21.35;75.46;96893.59;573301;247;65308;-72
2022/09/14 01:01:44;;;;;;;;;;;;;;;21.35;75.47;96898.15;573929;246;67044;-72
2022/09/14 01:04:11;;;;;;;;;;;;;;;21.35;75.48;96898.94;575209;246;65041;-72
2022/09/14 01:06:40;;;;;;;;;;;;;;;21.33;75.46;96901.08;575165;246;67209;-72
2022/09/14 01:09:27;;;;;;;;;;;;;;;21.34;75.44;96893.89;575092;246;67136;-69
2022/09/14 01:12:03;;;;;;;;;;;;;;;21.33;75.49;96895.73;575066;246;64998;-69
2022/09/14 01:14:50;;;;;;;;;;;;;;;21.35;75.50;96892.80;575165;246;64681;-69
2022/09/14 01:17:22;;;;;;;;;;;;;;;21.33;75.44;96890.39;561000;253;64700;-69
2022/09/14 01:19:51;;;;;;;;;;;;;;;21.34;75.42;96897.36;561042;253;65299;-69
2022/09/14 01:22:20;;;;;;;;;;;;;;;21.34;75.42;96899.23;566436;246;67419;-69
2022/09/14 01:24:55;;;;;;;;;;;;;;;21.33;75.43;96901.08;575116;246;67127;-69
2022/09/14 01:27:42;;;;;;;;;;;;;;;21.33;75.43;96901.08;575160;246;65218;-69
2022/09/14 01:30:07;;;;;;;;;;;;;;;21.34;75.42;96892.01;574706;246;65080;-72
2022/09/14 01:32:45;;;;;;;;;;;;;;;21.33;75.33;96895.73;575169;246;65094;-72
2022/09/14 01:35:17;;;;;;;;;;;;;;;21.32;75.39;96894.15;575049;246;65288;-72
2022/09/14 01:37:46;;;;;;;;;;;;;;;21.33;75.41;96877.02;575223;246;67192;-72
2022/09/14 01:40:15;;;;;;;;;;;;;;;21.33;75.44;96878.91;575180;246;67200;-72
2022/09/14 01:42:44;;;;;;;;;;;;;;;21.33;75.42;96886.92;575154;246;63717;-72
2022/09/14 01:45:13;;;;;;;;;;;;;;;21.32;75.36;96888.80;575154;246;67264;-72
2022/09/14 01:47:42;;;;;;;;;;;;;;;21.33;75.42;96884.25;575173;246;64813;-72
2022/09/14 01:50:11;;;;;;;;;;;;;;;21.32;75.39;96894.15;575137;246;63996;-72
2022/09/14 01:52:43;;;;;;;;;;;;;;;21.32;75.38;96886.13;575058;246;65221;-72
2022/09/14 01:55:12;;;;;;;;;;;;;;;21.32;75.35;96888.80;575169;246;64902;-72
2022/09/14 01:57:44;;;;;;;;;;;;;;;21.32;75.36;96886.13;575134;246;65162;-72
2022/09/14 02:00:19;;;;;;;;;;;;;;;21.33;75.40;96889.59;575077;246;65184;-72
2022/09/14 02:02:45;;;;;;;;;;;;;;;21.32;75.35;96890.69;573376;246;64646;-72
2022/09/14 02:05:14;;;;;;;;;;;;;;;21.32;75.40;96886.13;573262;247;65060;-72
2022/09/14 02:07:42;;;;;;;;;;;;;;;21.31;75.32;96887.22;573327;247;64804;-69
2022/09/14 02:10:10;;;;;;;;;;;;;;;21.31;75.30;96887.22;573318;247;66146;-69
2022/09/14 02:12:39;;;;;;;;;;;;;;;21.32;75.32;96879.98;573316;247;65169;-69
2022/09/14 02:15:08;;;;;;;;;;;;;;;21.31;75.26;96891.73;573329;247;65133;-69
2022/09/14 02:17:35;;;;;;;;;;;;;;;21.32;75.27;96893.36;573371;247;67165;-69
2022/09/14 02:20:05;;;;;;;;;;;;;;;21.31;75.30;96895.23;573309;247;65302;-69
2022/09/14 02:22:33;;;;;;;;;;;;;;;21.31;75.23;96892.56;573321;247;65132;-69
2022/09/14 02:25:00;;;;;;;;;;;;;;;21.31;75.32;96897.91;573348;247;64948;-69
2022/09/14 02:27:28;;;;;;;;;;;;;;;21.31;75.23;96892.56;573373;247;65305;-69
2022/09/14 02:29:55;;;;;;;;;;;;;;;21.31;75.27;96887.22;573365;247;66699;-72
2022/09/14 02:32:31;;;;;;;;;;;;;;;21.31;75.18;96883.72;573331;247;64513;-72
2022/09/14 02:35:03;;;;;;;;;;;;;;;21.29;75.24;96882.13;573323;247;65257;-72
2022/09/14 02:37:32;;;;;;;;;;;;;;;21.30;75.23;96888.27;572594;247;67427;-69
2022/09/14 02:40:17;;;;;;;;;;;;;;;21.30;75.21;96890.95;573218;247;66773;-69
2022/09/14 02:42:49;;;;;;;;;;;;;;;21.30;75.19;96874.91;573338;247;65171;-69
2022/09/14 02:45:24;;;;;;;;;;;;;;;21.30;75.20;96869.56;573323;247;64506;-69
2022/09/14 02:47:54;;;;;;;;;;;;;;;21.31;75.21;96870.36;573153;247;66851;-69
2022/09/14 02:50:29;;;;;;;;;;;;;;;21.30;75.21;96866.89;573317;247;65139;-69
2022/09/14 02:53:13;;;;;;;;;;;;;;;21.29;75.18;96862.63;573200;247;67143;-69
2022/09/14 02:55:42;;;;;;;;;;;;;;;21.30;75.23;96864.22;573058;245;67146;-69
2022/09/14 02:58:11;;;;;;;;;;;;;;;21.29;75.28;96857.28;573183;247;63097;-69
2022/09/14 03:00:40;;;;;;;;;;;;;;;21.29;75.24;96866.09;573245;247;64779;-72
2022/09/14 03:03:09;;;;;;;;;;;;;;;21.30;75.24;96858.88;573369;247;67254;-72
2022/09/14 03:05:37;;;;;;;;;;;;;;;21.29;75.20;96865.30;573316;247;65182;-72
2022/09/14 03:08:04;;;;;;;;;;;;;;;21.28;75.20;96859.16;573310;247;67274;-72
2022/09/14 03:10:32;;;;;;;;;;;;;;;21.29;75.19;96868.77;573316;247;66903;-69
2022/09/14 03:13:00;;;;;;;;;;;;;;;21.28;75.15;96859.16;573325;247;65160;-69
2022/09/14 03:15:28;;;;;;;;;;;;;;;21.28;75.15;96861.05;573362;247;65009;-69
2022/09/14 03:17:55;;;;;;;;;;;;;;;21.28;75.13;96861.84;573331;247;64523;-69
2022/09/14 03:20:24;;;;;;;;;;;;;;;21.28;75.12;96861.05;573306;247;65167;-69
2022/09/14 03:22:52;;;;;;;;;;;;;;;21.29;75.16;96870.65;573313;247;67180;-69
2022/09/14 03:25:21;;;;;;;;;;;;;;;21.28;75.15;96866.39;573284;247;67692;-69
2022/09/14 03:27:49;;;;;;;;;;;;;;;21.29;75.13;96870.65;573342;247;62742;-69
2022/09/14 03:30:17;;;;;;;;;;;;;;;21.27;75.19;96865.56;573296;247;67430;-69
2022/09/14 03:32:45;;;;;;;;;;;;;;;21.29;75.20;96870.65;573314;247;67064;-69
2022/09/14 03:35:13;;;;;;;;;;;;;;;21.27;75.19;96870.91;573271;247;65155;-69
2022/09/14 03:37:41;;;;;;;;;;;;;;;21.28;75.13;96866.39;573286;247;67374;-69
2022/09/14 03:40:10;;;;;;;;;;;;;;;21.27;75.15;96868.23;573308;247;66917;-69
2022/09/14 03:42:38;;;;;;;;;;;;;;;21.28;75.14;96866.39;573380;247;64993;-69
2022/09/14 03:45:06;;;;;;;;;;;;;;;21.27;75.20;96876.26;573241;247;66922;-69
2022/09/14 03:47:34;;;;;;;;;;;;;;;21.26;75.20;96873.88;573312;247;66954;-72
2022/09/14 03:50:01;;;;;;;;;;;;;;;21.28;75.19;96866.39;573290;247;62813;-72
2022/09/14 03:52:29;;;;;;;;;;;;;;;21.27;75.19;96876.26;573319;247;65423;-72
2022/09/14 03:54:56;;;;;;;;;;;;;;;21.27;75.15;96878.14;573346;247;64839;-69
2022/09/14 03:57:24;;;;;;;;;;;;;;;21.28;75.15;96871.73;573310;247;62983;-69
2022/09/14 03:59:51;;;;;;;;;;;;;;;21.27;75.13;96868.23;573307;247;65021;-69
2022/09/14 04:02:19;;;;;;;;;;;;;;;21.26;75.13;96865.86;573290;247;64878;-69
2022/09/14 04:04:47;;;;;;;;;;;;;;;21.26;75.13;96863.19;573307;247;63138;-69
2022/09/14 04:07:16;;;;;;;;;;;;;;;21.26;75.07;96863.19;573346;247;65298;-70
2022/09/14 04:09:43;;;;;;;;;;;;;;;21.26;75.22;96871.20;573319;247;64865;-69
2022/09/14 04:12:16;;;;;;;;;;;;;;;21.26;75.14;96868.53;573313;247;62992;-69
2022/09/14 04:14:42;;;;;;;;;;;;;;;21.25;75.12;96866.91;573096;247;67437;-69
2022/09/14 04:17:10;;;;;;;;;;;;;;;21.26;75.17;96865.86;573318;247;66936;-70
2022/09/14 04:19:43;;;;;;;;;;;;;;;21.26;75.15;96857.84;573350;247;65121;-70
2022/09/14 04:22:10;;;;;;;;;;;;;;;21.24;75.15;96852.76;573307;247;67471;-70
2022/09/14 04:24:40;;;;;;;;;;;;;;;21.24;75.17;96855.43;573360;244;53189;-70
2022/09/14 04:27:07;;;;;;;;;;;;;;;21.24;75.15;96855.43;573299;247;63024;-70
2022/09/14 04:29:35;;;;;;;;;;;;;;;21.25;75.08;96861.57;573297;247;64976;-70
2022/09/14 04:32:03;;;;;;;;;;;;;;;21.25;75.09;96864.24;573384;247;64700;-70
2022/09/14 04:34:30;;;;;;;;;;;;;;;21.24;75.09;96871.47;573288;247;63002;-70
2022/09/14 04:36:58;;;;;;;;;;;;;;;21.24;75.08;96874.14;573310;247;65067;-70
2022/09/14 04:39:25;;;;;;;;;;;;;;;21.24;75.00;96881.36;573307;247;65147;-70
2022/09/14 04:41:53;;;;;;;;;;;;;;;21.24;75.03;96881.36;573329;247;62995;-70
2022/09/14 04:44:20;;;;;;;;;;;;;;;21.24;75.04;96871.47;573376;247;65136;-70
2022/09/14 04:46:48;;;;;;;;;;;;;;;21.25;75.05;96880.28;573351;247;67256;-70
2022/09/14 04:49:17;;;;;;;;;;;;;;;21.25;75.04;96882.95;573328;247;64963;-70
2022/09/14 04:51:45;;;;;;;;;;;;;;;21.24;74.99;96889.38;573469;247;65245;-73
2022/09/14 04:54:13;;;;;;;;;;;;;;;21.24;75.02;96892.84;573303;247;64922;-73
2022/09/14 04:56:41;;;;;;;;;;;;;;;21.23;75.02;96885.91;573348;247;62935;-70
2022/09/14 04:59:09;;;;;;;;;;;;;;;21.24;75.06;96897.40;573381;247;67020;-70
2022/09/14 05:01:37;;;;;;;;;;;;;;;21.24;75.06;96900.07;574054;246;66937;-69
2022/09/14 05:04:06;;;;;;;;;;;;;;;21.24;75.01;96897.40;575133;246;63250;-69
2022/09/14 05:06:35;;;;;;;;;;;;;;;21.23;74.97;96891.26;575159;246;67597;-69
2022/09/14 05:09:04;;;;;;;;;;;;;;;21.23;74.96;96891.26;575138;246;65996;-69
2022/09/14 05:11:32;;;;;;;;;;;;;;;21.23;74.93;96893.93;575182;246;65077;-69
2022/09/14 05:14:00;;;;;;;;;;;;;;;21.23;74.99;96891.26;575174;246;64991;-69
2022/09/14 05:16:30;;;;;;;;;;;;;;;21.23;75.00;96896.61;575140;246;67181;-69
2022/09/14 05:19:00;;;;;;;;;;;;;;;21.23;74.98;96898.48;575156;246;63227;-69
2022/09/14 05:21:28;;;;;;;;;;;;;;;21.23;74.98;96896.61;575178;246;65014;-69
2022/09/14 05:23:56;;;;;;;;;;;;;;;21.22;74.95;96894.98;575204;246;64766;-69
2022/09/14 05:26:25;;;;;;;;;;;;;;;21.23;74.98;96893.14;575144;246;65166;-69
2022/09/14 05:28:54;;;;;;;;;;;;;;;21.23;75.02;96895.81;575124;246;65080;-69
2022/09/14 05:31:22;;;;;;;;;;;;;;;21.22;75.04;96897.66;575157;246;67180;-69
2022/09/14 05:33:50;;;;;;;;;;;;;;;21.22;75.10;96905.67;574951;246;62986;-69
2022/09/14 05:36:18;;;;;;;;;;;;;;;21.23;75.04;96914.52;575077;246;64974;-69
2022/09/14 05:38:45;;;;;;;;;;;;;;;21.22;75.06;96915.58;575189;246;65226;-69
2022/09/14 05:41:14;;;;;;;;;;;;;;;21.23;75.02;96917.19;575165;246;65101;-69
2022/09/14 05:43:42;;;;;;;;;;;;;;;21.23;75.04;96925.21;575155;246;67260;-69
2022/09/14 05:46:13;;;;;;;;;;;;;;;21.22;75.05;96920.92;575153;246;66703;-69
2022/09/14 05:48:41;;;;;;;;;;;;;;;21.23;75.09;96914.52;575144;246;65086;-72
2022/09/14 05:51:10;;;;;;;;;;;;;;;21.22;75.11;96915.58;575206;246;66140;-68
2022/09/14 05:53:37;;;;;;;;;;;;;;;21.23;75.02;96925.21;574627;246;67380;-66
2022/09/14 05:56:09;;;;;;;;;;;;;;;21.22;74.88;96918.25;575126;246;65287;-69
2022/09/14 05:58:38;;;;;;;;;;;;;;;21.21;71.60;96919.33;574937;246;65292;-68
2022/09/14 06:01:12;;;;;;;;;;;;;;;21.21;71.40;96924.67;574492;246;67240;-68
2022/09/14 06:03:40;;;;;;;;;;;;;;;21.23;74.27;96919.86;575105;241;63168;-68
2022/09/14 06:06:09;;;;;;;;;;;;;;;21.23;75.15;96931.34;587559;241;64982;-68
2022/09/14 06:08:37;;;;;;;;;;;;;;;21.23;75.87;96922.53;587508;241;67053;-68
2022/09/14 06:11:06;;;;;;;;;;;;;;;21.23;76.43;96925.21;587535;241;65077;-69
2022/09/14 06:13:34;;;;;;;;;;;;;;;21.23;76.68;96925.21;587465;239;66934;-69
2022/09/14 06:16:09;;;;;;;;;;;;;;;21.21;75.40;96917.45;587555;241;65790;-69
2022/09/14 06:18:37;;;;;;;;;;;;;;;21.23;76.37;96927.88;587357;241;65011;-69
2022/09/14 06:21:05;;;;;;;;;;;;;;;21.23;77.12;96917.98;587533;241;65470;-69
2022/09/14 06:23:33;;;;;;;;;;;;;;;21.23;77.47;96917.98;587504;241;65140;-70
2022/09/14 06:26:01;;;;;;;;;;;;;;;21.23;77.41;96915.31;587534;241;62659;-70
2022/09/14 06:28:29;;;;;;;;;;;;;;;21.24;77.24;96918.78;587561;241;65322;-71
2022/09/14 06:30:57;;;;;;;;;;;;;;;21.25;77.60;96917.70;580589;241;64913;-69
2022/09/14 06:33:24;;;;;;;;;;;;;;;21.24;76.97;96908.88;587573;241;65134;-69
2022/09/14 06:35:55;;;;;;;;;;;;;;;21.24;76.51;96913.44;587577;241;66814;-76
2022/09/14 06:38:23;;;;;;;;;;;;;;;21.25;76.79;96912.34;587571;241;64722;-68
2022/09/14 06:40:57;;;;;;;;;;;;;;;21.25;76.19;96909.67;587538;241;63859;-68
2022/09/14 06:43:26;;;;;;;;;;;;;;;21.24;75.15;96908.88;587537;241;66945;-71
2022/09/14 06:46:14;;;;;;;;;;;;;;;21.25;75.39;96912.34;587576;241;64696;-70
2022/09/14 06:48:44;;;;;;;;;;;;;;;21.25;75.08;96912.34;587370;241;45051;-70
2022/09/14 06:51:14;;;;;;;;;;;;;;;21.24;74.86;96908.09;587573;241;64866;-71
2022/09/14 06:53:41;;;;;;;;;;;;;;;21.24;74.79;96903.54;587584;241;64661;-70
2022/09/14 06:56:09;;;;;;;;;;;;;;;21.24;74.70;96908.09;587549;241;63199;-69
2022/09/14 06:58:36;;;;;;;;;;;;;;;21.24;74.44;96897.40;587550;241;64723;-69
2022/09/14 07:01:05;;;;;;;;;;;;;;;21.25;74.37;96904.33;587852;240;64772;-73
2022/09/14 07:03:34;;;;;;;;;;;;;;;21.24;74.18;96906.21;589455;240;64959;-71
2022/09/14 07:06:02;;;;;;;;;;;;;;;21.24;74.07;96903.54;589455;240;65072;-70
2022/09/14 07:08:30;;;;;;;;;;;;;;;21.24;73.95;96908.88;589427;240;65306;-70
2022/09/14 07:10:58;;;;;;;;;;;;;;;21.24;73.86;96898.19;589425;240;63725;-69
2022/09/14 07:13:25;;;;;;;;;;;;;;;21.24;73.76;96895.52;589471;240;67065;-71
2022/09/14 07:15:54;;;;;;;;;;;;;;;21.25;73.73;96888.30;589417;240;64829;-69
2022/09/14 07:18:31;;;;;;;;;;;;;;;21.25;73.63;96898.98;589456;240;62890;-70
2022/09/14 07:20:58;;;;;;;;;;;;;;;21.25;73.86;96897.14;589340;240;67480;-70
2022/09/14 07:23:26;;;;;;;;;;;;;;;21.27;72.98;96889.63;589355;240;71367;-69
2022/09/14 07:26:01;;;;;;;;;;;;;;;21.30;73.23;96893.62;589381;240;65147;-67
2022/09/14 07:28:28;;;;;;;;;;;;;;;21.32;73.21;96891.48;589232;240;64639;-69
2022/09/14 07:30:56;;;;;;;;;;;;;;;21.33;73.28;96886.92;589459;240;65195;-68
2022/09/14 07:33:24;;;;;;;;;;;;;;;21.35;73.55;96890.13;589444;240;65149;-68
2022/09/14 07:35:52;;;;;;;;;;;;;;;21.35;73.52;96888.25;589458;240;65385;-69
2022/09/14 07:38:19;;;;;;;;;;;;;;;21.35;73.57;96890.92;589457;240;67025;-69
2022/09/14 07:40:47;;;;;;;;;;;;;;;21.36;73.61;96895.21;589479;240;65197;-70
2022/09/14 07:43:14;;;;;;;;;;;;;;;21.37;73.60;96883.46;589460;240;67254;-68
2022/09/14 07:45:42;;;;;;;;;;;;;;;21.38;73.64;96885.05;589481;240;65044;-67
2022/09/14 07:48:09;;;;;;;;;;;;;;;21.38;73.73;96893.07;589457;240;63058;-67
2022/09/14 07:50:37;;;;;;;;;;;;;;;21.39;73.72;96888.52;589465;240;67200;-69
2022/09/14 07:53:04;;;;;;;;;;;;;;;21.39;73.88;96889.34;589466;240;66893;-67
2022/09/14 07:55:32;;;;;;;;;;;;;;;21.41;74.03;96892.52;589437;240;62932;-68
2022/09/14 07:57:59;;;;;;;;;;;;;;;21.42;74.03;96888.78;589430;240;65993;-69
2022/09/14 08:00:27;;;;;;;;;;;;;;;21.42;74.13;96885.31;589404;240;65012;-67
2022/09/14 08:02:56;;;;;;;;;;;;;;;21.39;69.22;96889.34;585359;240;65152;-67
2022/09/14 08:05:23;;;;;;;;;;;;;;;21.41;72.02;96884.49;585173;242;67066;-69
2022/09/14 08:07:54;;;;;;;;;;;;;;;21.40;73.18;96884.79;585145;242;66896;-67
2022/09/14 08:10:21;;;;;;;;;;;;;;;21.39;73.75;96889.34;585126;242;65108;-69
2022/09/14 08:12:52;;;;;;;;;;;;;;;21.38;74.19;96884.25;585201;242;61005;-69
2022/09/14 08:15:20;;;;;;;;;;;;;;;21.38;74.36;96885.05;585199;242;64473;-67
2022/09/14 08:17:47;;;;;;;;;;;;;;;21.37;74.65;96883.46;585186;242;65141;-69
2022/09/14 08:20:15;;;;;;;;;;;;;;;21.36;74.73;96879.17;585233;242;67247;-69
2022/09/14 08:22:43;;;;;;;;;;;;;;;21.35;74.35;96882.11;585172;242;67248;-69
2022/09/14 08:25:10;;;;;;;;;;;;;;;21.35;73.97;96884.78;585206;242;63807;-69
2022/09/14 08:27:38;;;;;;;;;;;;;;;21.34;73.66;96877.84;585205;242;64634;-69
2022/09/14 08:30:05;;;;;;;;;;;;;;;21.34;73.62;96875.17;585182;242;66848;-70
2022/09/14 08:32:32;;;;;;;;;;;;;;;21.34;73.98;96880.52;585239;242;65114;-67
2022/09/14 08:34:59;;;;;;;;;;;;;;;21.34;74.25;96875.97;585154;242;66960;-69
2022/09/14 08:37:26;;;;;;;;;;;;;;;21.34;74.29;96872.50;585178;242;64798;-69
2022/09/14 08:39:53;;;;;;;;;;;;;;;21.33;74.49;96863.66;585216;242;65188;-69
2022/09/14 08:42:23;;;;;;;;;;;;;;;21.33;74.60;96858.31;585220;242;66987;-70
2022/09/14 08:44:54;;;;;;;;;;;;;;;21.32;74.59;96851.38;585200;242;66746;-70
2022/09/14 08:47:26;;;;;;;;;;;;;;;21.32;74.62;96851.38;585162;242;62683;-69
2022/09/14 08:49:55;;;;;;;;;;;;;;;21.32;74.80;96840.69;585167;242;64946;-69
2022/09/14 08:52:29;;;;;;;;;;;;;;;21.33;74.81;96844.16;585194;242;64720;-69
2022/09/14 08:54:57;;;;;;;;;;;;;;;21.32;74.97;96850.59;585048;242;62605;-69
2022/09/14 08:57:28;;;;;;;;;;;;;;;21.32;75.03;96840.69;585181;242;64755;-69
2022/09/14 08:59:57;;;;;;;;;;;;;;;21.33;75.09;96846.83;584988;242;64662;-69
2022/09/14 09:02:31;;;;;;;;;;;;;;;21.32;75.17;96840.69;588111;240;63832;-69
2022/09/14 09:04:59;;;;;;;;;;;;;;;21.32;75.14;96839.89;589072;240;67289;-69
2022/09/14 09:07:28;;;;;;;;;;;;;;;21.31;75.24;96836.44;589398;240;67016;-69
2022/09/14 09:09:56;;;;;;;;;;;;;;;21.32;75.25;96831.88;589312;240;62912;-69
2022/09/14 09:12:24;;;;;;;;;;;;;;;21.32;75.33;96829.20;589465;240;67160;-69
2022/09/14 09:14:53;;;;;;;;;;;;;;;21.32;75.35;96821.98;589445;240;63640;-68
2022/09/14 09:17:24;;;;;;;;;;;;;;;21.31;75.37;96828.41;589443;240;65062;-69
2022/09/14 09:20:03;;;;;;;;;;;;;;;21.32;75.32;96837.22;589386;240;64594;-68
2022/09/14 09:22:31;;;;;;;;;;;;;;;21.31;75.36;96832.94;589487;240;66784;-69
2022/09/14 09:24:58;;;;;;;;;;;;;;;21.32;75.38;96830.00;589419;240;65046;-68
2022/09/14 09:27:26;;;;;;;;;;;;;;;21.31;75.29;96831.09;589497;240;67022;-68
2022/09/14 09:29:53;;;;;;;;;;;;;;;21.32;75.26;96834.55;589490;240;64496;-68
2022/09/14 09:32:23;;;;;;;;;;;;;;;21.31;75.36;96833.76;589473;240;64715;-67
2022/09/14 09:35:10;;;;;;;;;;;;;;;21.31;75.35;96831.09;589611;240;37925;-69
2022/09/14 09:37:42;;;;;;;;;;;;;;;21.32;75.36;96831.88;586927;240;48586;-68
2022/09/14 09:40:15;;;;;;;;;;;;;;;21.31;75.25;96825.73;589472;240;63039;-69
2022/09/14 09:43:00;;;;;;;;;;;;;;;21.31;75.24;96827.59;589213;240;65039;-68
2022/09/14 09:45:29;;;;;;;;;;;;;;;21.31;75.23;96827.59;589519;240;64990;-69
2022/09/14 09:47:57;;;;;;;;;;;;;;;21.31;75.29;96825.73;588649;240;65316;-70
2022/09/14 09:50:25;;;;;;;;;;;;;;;21.31;75.34;96817.72;589476;240;67293;-69
2022/09/14 09:52:54;;;;;;;;;;;;;;;21.32;75.32;96821.19;589479;240;64923;-68
2022/09/14 09:55:25;;;;;;;;;;;;;;;21.31;75.39;96816.90;589239;240;65085;-69
2022/09/14 09:57:53;;;;;;;;;;;;;;;21.31;75.39;96822.24;589516;240;66960;-69
2022/09/14 10:00:28;;;;;;;;;;;;;;;21.31;75.33;96831.09;589422;240;65178;-69
2022/09/14 10:02:56;;;;;;;;;;;;;;;21.31;75.36;96825.73;585341;240;63044;-69
2022/09/14 10:05:27;;;;;;;;;;;;;;;21.30;75.29;96829.47;585148;242;65260;-69
2022/09/14 10:08:08;;;;;;;;;;;;;;;21.31;75.37;96831.09;584789;242;67037;-68
2022/09/14 10:10:38;;;;;;;;;;;;;;;21.31;75.35;96828.41;585045;242;65085;-69
2022/09/14 10:13:07;;;;;;;;;;;;;;;21.31;75.41;96828.41;585177;242;65097;-69
2022/09/14 10:15:35;;;;;;;;;;;;;;;21.31;75.34;96828.41;584870;242;67171;-68
2022/09/14 10:18:04;;;;;;;;;;;;;;;21.31;75.35;96828.41;585185;242;65216;-69
2022/09/14 10:20:32;;;;;;;;;;;;;;;21.31;75.41;96828.41;585171;242;68016;-68
2022/09/14 10:23:19;;;;;;;;;;;;;;;21.31;75.42;96828.41;585220;242;65048;-68
2022/09/14 10:25:48;;;;;;;;;;;;;;;21.31;75.37;96827.59;585222;242;65488;-68
2022/09/14 10:28:32;;;;;;;;;;;;;;;21.31;75.42;96825.73;585174;242;67266;-69
2022/09/14 10:31:19;;;;;;;;;;;;;;;21.31;75.43;96827.59;585180;242;65036;-68
2022/09/14 10:33:51;;;;;;;;;;;;;;;21.31;75.44;96819.57;585188;242;65414;-68
2022/09/14 10:36:26;;;;;;;;;;;;;;;21.31;75.49;96817.72;585157;242;67281;-70
2022/09/14 10:38:58;;;;;;;;;;;;;;;21.31;75.42;96816.90;585178;242;64858;-70
2022/09/14 10:41:33;;;;;;;;;;;;;;;21.31;75.39;96812.38;585195;242;63177;-70
2022/09/14 10:44:21;;;;;;;;;;;;;;;21.31;75.41;96807.03;585236;242;67161;-68
2022/09/14 10:46:52;;;;;;;;;;;;;;;21.34;74.60;96803.00;585185;242;70453;-67
2022/09/14 10:49:31;;;;;;;;;;;;;;;21.34;75.99;96803.00;585203;242;63857;-67
2022/09/14 10:52:00;;;;;;;;;;;;;;;21.35;76.21;96804.59;585198;242;64779;-67
2022/09/14 10:54:32;;;;;;;;;;;;;;;21.34;76.23;96803.80;585182;242;66890;-66
2022/09/14 10:57:02;;;;;;;;;;;;;;;21.34;76.13;96794.98;585167;242;65022;-66
2022/09/14 10:59:37;;;;;;;;;;;;;;;21.34;76.20;96800.33;585231;242;64016;-68
2022/09/14 11:02:23;;;;;;;;;;;;;;;21.35;73.79;96785.88;584409;242;66953;-68
2022/09/14 11:04:53;;;;;;;;;;;;;;;21.35;73.78;96792.02;585194;242;65386;-68
2022/09/14 11:07:23;;;;;;;;;;;;;;;21.35;75.47;96783.20;585166;242;67155;-67
2022/09/14 11:09:56;;;;;;;;;;;;;;;21.35;75.40;96783.20;584999;242;67078;-69
2022/09/14 11:12:28;;;;;;;;;;;;;;;21.33;75.31;96780.80;585108;242;65065;-68
2022/09/14 11:15:00;;;;;;;;;;;;;;;21.33;75.26;96774.66;584990;242;64791;-68
2022/09/14 11:17:33;;;;;;;;;;;;;;;21.34;73.88;96782.41;585221;242;67067;-68
2022/09/14 11:20:18;;;;;;;;;;;;;;;21.34;74.92;96781.62;585158;242;65060;-69
2022/09/14 11:22:59;;;;;;;;;;;;;;;21.33;74.94;96775.45;585161;242;67479;-68
2022/09/14 11:25:29;;;;;;;;;;;;;;;21.33;74.80;96772.78;585186;242;67141;-68
2022/09/14 11:28:04;;;;;;;;;;;;;;;21.32;74.52;96773.08;585087;242;65146;-68
2022/09/14 11:30:41;;;;;;;;;;;;;;;21.32;74.41;96770.41;584042;242;47917;-68
2022/09/14 11:33:11;;;;;;;;;;;;;;;21.31;74.27;96768.78;585184;242;64948;-68
2022/09/14 11:35:44;;;;;;;;;;;;;;;21.31;73.86;96753.58;584515;242;65179;-69
2022/09/14 11:38:15;;;;;;;;;;;;;;;21.30;73.78;96751.95;585021;242;65109;-68
2022/09/14 11:40:47;;;;;;;;;;;;;;;21.29;73.52;96750.38;585185;242;67335;-68
2022/09/14 11:43:25;;;;;;;;;;;;;;;21.29;73.39;96737.80;585192;242;65141;-74
2022/09/14 11:45:58;;;;;;;;;;;;;;;21.30;71.65;96735.92;585074;242;64892;-68
2022/09/14 11:48:29;;;;;;;;;;;;;;;21.33;68.20;96729.22;582071;242;67062;-69
2022/09/14 11:50:58;;;;;;;;;;;;;;;21.36;73.36;96732.16;585204;242;62910;-68
2022/09/14 11:53:26;;;;;;;;;;;;;;;21.35;73.94;96730.53;585039;242;65137;-67
2022/09/14 11:55:54;;;;;;;;;;;;;;;21.33;74.05;96735.36;585175;242;67079;-69
2022/09/14 11:58:26;;;;;;;;;;;;;;;21.33;74.32;96730.02;585150;242;65065;-69
2022/09/14 12:00:56;;;;;;;;;;;;;;;21.33;74.29;96724.67;585575;240;65119;-68
2022/09/14 12:03:25;;;;;;;;;;;;;;;21.34;71.27;96730.84;589413;240;66623;-69
2022/09/14 12:05:53;;;;;;;;;;;;;;;21.33;73.50;96719.32;588460;240;65083;-68
2022/09/14 12:08:25;;;;;;;;;;;;;;;21.34;73.74;96725.48;589448;240;67219;-69
2022/09/14 12:11:06;;;;;;;;;;;;;;;21.33;73.94;96718.53;589419;240;65233;-70
2022/09/14 12:13:35;;;;;;;;;;;;;;;21.32;73.74;96723.08;589415;240;62981;-69
2022/09/14 12:16:04;;;;;;;;;;;;;;;21.32;73.56;96725.75;589455;240;67285;-68
2022/09/14 12:18:33;;;;;;;;;;;;;;;21.31;73.48;96726.84;589296;240;67034;-65
2022/09/14 12:21:02;;;;;;;;;;;;;;;21.32;73.29;96733.77;589453;240;65021;-71
2022/09/14 12:23:32;;;;;;;;;;;;;;;21.31;73.25;96721.50;589470;240;66959;-68
2022/09/14 12:26:07;;;;;;;;;;;;;;;21.31;73.01;96716.16;589480;240;67075;-67
2022/09/14 12:28:36;;;;;;;;;;;;;;;21.32;73.35;96719.62;589476;240;63079;-67
2022/09/14 12:31:05;;;;;;;;;;;;;;;21.31;73.96;96710.80;589453;240;66939;-67
2022/09/14 12:33:35;;;;;;;;;;;;;;;21.32;74.17;96717.73;589480;240;67070;-68
2022/09/14 12:36:22;;;;;;;;;;;;;;;21.34;74.55;96720.14;589442;240;65135;-69
2022/09/14 12:38:52;;;;;;;;;;;;;;;21.33;74.67;96713.19;589428;240;67306;-68
2022/09/14 12:41:21;;;;;;;;;;;;;;;21.32;74.85;96717.73;589466;240;67656;-67
2022/09/14 12:43:50;;;;;;;;;;;;;;;21.33;74.95;96713.97;589445;240;65059;-69
2022/09/14 12:46:22;;;;;;;;;;;;;;;21.33;74.91;96718.53;589419;240;65088;-68
2022/09/14 12:48:54;;;;;;;;;;;;;;;21.34;74.98;96720.14;589475;240;67186;-68
2022/09/14 12:51:22;;;;;;;;;;;;;;;21.32;75.07;96725.75;589432;240;63050;-71
2022/09/14 12:53:54;;;;;;;;;;;;;;;21.34;75.13;96730.84;589476;240;64863;-70
2022/09/14 12:56:22;;;;;;;;;;;;;;;21.34;75.21;96736.18;588576;240;65119;-68
2022/09/14 12:58:58;;;;;;;;;;;;;;;21.33;75.19;96735.36;589381;240;65084;-69
2022/09/14 13:01:44;;;;;;;;;;;;;;;21.34;75.10;96730.84;587783;240;67308;-69
2022/09/14 13:04:14;;;;;;;;;;;;;;;21.34;74.98;96741.53;585247;242;67077;-68